Time;durP1;ratioP1;P1;durP2;ratioP2;P2;SDS_P1;SDS_P2;PMS_P1;PMS_P2;Temp;Humidity;BMP_temperature;BMP_pressure;BME280_temperature;BME280_humidity;BME280_pressure;Samples;Min_cycle;Max_cycle;Signal;HPM_P1;HPM_P2
2022/04/17 00:00:00;;;;;;;53.20;30.17;;;10.80;99.90;;;;;;5033345;28;20073;-59
2022/04/17 00:02:33;;;;;;;59.15;32.08;;;10.80;99.90;;;;;;5034031;28;20115;-59
2022/04/17 00:05:01;;;;;;;57.30;32.63;;;10.80;99.90;;;;;;5033908;28;20068;-59
2022/04/17 00:07:29;;;;;;;59.47;33.67;;;10.70;99.90;;;;;;5034330;28;20104;-58
2022/04/17 00:09:56;;;;;;;63.13;34.40;;;10.70;99.90;;;;;;5033015;28;20041;-59
2022/04/17 00:12:23;;;;;;;60.83;31.52;;;10.60;99.90;;;;;;5033478;28;20107;-59
2022/04/17 00:14:50;;;;;;;58.25;31.33;;;10.60;99.90;;;;;;5033839;28;20049;-59
2022/04/17 00:17:18;;;;;;;58.90;34.15;;;10.60;99.90;;;;;;5033168;28;20077;-57
2022/04/17 00:19:45;;;;;;;56.90;33.53;;;10.50;99.90;;;;;;5033482;28;20103;-59
2022/04/17 00:22:13;;;;;;;58.13;33.03;;;10.50;99.90;;;;;;5034295;28;20053;-57
2022/04/17 00:24:40;;;;;;;57.88;34.00;;;10.50;99.90;;;;;;5031876;28;20084;-59
2022/04/17 00:27:07;;;;;;;57.63;32.92;;;10.50;99.90;;;;;;5032665;28;20080;-59
2022/04/17 00:29:35;;;;;;;58.13;32.13;;;10.50;99.90;;;;;;5032353;28;20056;-58
2022/04/17 00:32:02;;;;;;;60.53;32.70;;;10.50;99.90;;;;;;5021193;28;20092;-58
2022/04/17 00:34:30;;;;;;;54.97;31.48;;;10.50;99.90;;;;;;5029594;28;20137;-59
2022/04/17 00:36:59;;;;;;;65.57;34.50;;;10.50;99.90;;;;;;5030913;28;20055;-59
2022/04/17 00:39:26;;;;;;;59.15;31.77;;;10.40;99.90;;;;;;5030329;28;20045;-59
2022/04/17 00:41:54;;;;;;;61.50;32.83;;;10.50;99.90;;;;;;5029705;28;20046;-59
2022/04/17 00:44:20;;;;;;;63.28;33.00;;;10.40;99.90;;;;;;5033109;28;20081;-59
2022/04/17 00:46:47;;;;;;;63.53;33.10;;;10.40;99.90;;;;;;5034088;28;20103;-59
2022/04/17 00:49:14;;;;;;;57.80;32.47;;;10.30;99.90;;;;;;5034461;28;20536;-57
2022/04/17 00:51:42;;;;;;;59.10;33.83;;;10.30;99.90;;;;;;5034384;28;20119;-57
2022/04/17 00:54:12;;;;;;;58.75;33.33;;;10.30;99.90;;;;;;5034809;28;20045;-58
2022/04/17 00:56:38;;;;;;;65.18;33.35;;;10.30;99.90;;;;;;5033076;28;20049;-57
2022/04/17 00:59:11;;;;;;;63.03;33.90;;;10.30;99.90;;;;;;5032785;28;20077;-58
2022/04/17 01:01:38;;;;;;;59.25;32.47;;;10.30;99.90;;;;;;5033655;28;20107;-58
2022/04/17 01:04:05;;;;;;;67.20;32.97;;;10.30;99.90;;;;;;5033790;28;20386;-59
2022/04/17 01:06:32;;;;;;;62.25;33.38;;;10.20;99.90;;;;;;5032591;28;20121;-59
2022/04/17 01:09:00;;;;;;;59.90;32.45;;;10.20;99.90;;;;;;5033689;28;20132;-56
2022/04/17 01:11:27;;;;;;;63.65;33.35;;;10.20;99.90;;;;;;5029845;28;20049;-58
2022/04/17 01:13:53;;;;;;;62.05;33.65;;;10.20;99.90;;;;;;5033592;28;20133;-58
2022/04/17 01:16:23;;;;;;;63.75;34.67;;;10.20;99.90;;;;;;4683050;28;10000132;-57
2022/04/17 01:19:01;;;;;;;56.92;31.73;;;10.10;99.90;;;;;;5031213;28;20160;-58
2022/04/17 01:21:29;;;;;;;60.55;33.92;;;10.10;99.90;;;;;;5033781;28;20077;-58
2022/04/17 01:26:57;;;;;;;57.63;31.67;;;10.10;99.90;;;;;;5033103;28;20468;-58
2022/04/17 01:29:27;;;;;;;62.38;33.00;;;10.10;99.90;;;;;;5032849;28;20050;-56
2022/04/17 01:31:54;;;;;;;60.33;31.55;;;10.10;99.90;;;;;;5033544;28;20404;-57
2022/04/17 01:34:21;;;;;;;59.35;33.38;;;10.10;99.90;;;;;;5032034;28;20496;-56
2022/04/17 01:36:51;;;;;;;62.17;33.47;;;10.00;99.90;;;;;;5015683;28;20491;-58
2022/04/17 01:39:18;;;;;;;60.30;32.90;;;10.00;99.90;;;;;;5023038;28;20488;-57
2022/04/17 01:41:47;;;;;;;59.92;32.88;;;10.00;99.90;;;;;;5024052;28;20562;-57
2022/04/17 01:44:16;;;;;;;60.25;33.35;;;10.00;99.90;;;;;;5033169;28;20085;-59
2022/04/17 01:46:46;;;;;;;56.72;32.38;;;10.00;99.90;;;;;;5032728;28;20103;-57
2022/04/17 01:49:15;;;;;;;66.05;33.75;;;10.00;99.90;;;;;;5031729;28;20072;-58
2022/04/17 01:51:42;;;;;;;61.75;33.97;;;9.90;99.90;;;;;;5031043;28;20045;-57
2022/04/17 01:54:11;;;;;;;59.50;33.40;;;10.00;99.90;;;;;;5031363;28;20133;-58
2022/04/17 01:56:38;;;;;;;60.97;33.72;;;10.00;99.90;;;;;;5031325;28;20081;-58
2022/04/17 01:59:06;;;;;;;56.65;32.75;;;9.90;99.90;;;;;;5032406;28;20081;-58
2022/04/17 02:01:33;;;;;;;69.18;33.53;;;9.80;99.90;;;;;;5031455;28;20467;-58
2022/04/17 02:04:01;;;;;;;63.78;31.98;;;9.70;99.90;;;;;;5031716;28;20328;-56
2022/04/17 02:06:27;;;;;;;59.05;32.70;;;9.70;99.90;;;;;;5012416;28;20046;-58
2022/04/17 02:08:54;;;;;;;63.17;34.58;;;9.70;99.90;;;;;;5026527;28;20602;-58
2022/04/17 02:11:22;;;;;;;69.53;34.92;;;9.60;99.90;;;;;;5031778;28;20104;-58
2022/04/17 02:13:49;;;;;;;67.80;34.65;;;9.60;99.90;;;;;;5031440;28;20116;-59
2022/04/17 02:16:19;;;;;;;78.47;38.83;;;9.60;99.90;;;;;;5032344;28;20487;-58
2022/04/17 02:18:46;;;;;;;73.72;36.15;;;9.60;99.90;;;;;;5031633;28;20045;-58
2022/04/17 02:21:14;;;;;;;68.40;36.40;;;9.60;99.90;;;;;;5032313;28;20139;-57
2022/04/17 02:23:41;;;;;;;66.28;35.47;;;9.60;99.90;;;;;;5030218;28;20056;-58
2022/04/17 02:26:08;;;;;;;75.22;38.80;;;9.70;99.90;;;;;;5031866;28;20204;-59
2022/04/17 02:28:36;;;;;;;64.63;35.15;;;9.60;99.90;;;;;;5031746;28;20107;-58
2022/04/17 02:31:04;;;;;;;65.78;34.60;;;9.60;99.90;;;;;;5030806;28;20552;-59
2022/04/17 02:33:31;;;;;;;72.97;40.35;;;9.60;99.90;;;;;;5027207;28;20081;-58
2022/04/17 02:35:57;;;;;;;71.95;36.17;;;9.50;99.90;;;;;;5028622;28;20049;-58
2022/04/17 02:38:24;;;;;;;73.75;36.75;;;9.50;99.90;;;;;;5028591;28;20505;-59
2022/04/17 02:40:52;;;;;;;68.47;35.97;;;9.50;99.90;;;;;;5024366;28;20096;-59
2022/04/17 02:43:18;;;;;;;74.97;36.78;;;9.40;99.90;;;;;;5028166;28;20505;-59
2022/04/17 02:45:45;;;;;;;80.43;38.78;;;9.40;99.90;;;;;;5028728;28;20046;-59
2022/04/17 02:48:12;;;;;;;76.95;38.15;;;9.40;99.90;;;;;;5030096;28;20600;-59
2022/04/17 02:50:39;;;;;;;79.60;37.22;;;9.40;99.90;;;;;;5029846;28;20116;-58
2022/04/17 02:53:06;;;;;;;78.25;37.75;;;9.40;99.90;;;;;;5029584;28;20107;-57
2022/04/17 02:55:33;;;;;;;75.53;38.80;;;9.40;99.90;;;;;;5029421;28;20096;-57
2022/04/17 02:58:00;;;;;;;76.45;37.58;;;9.30;99.90;;;;;;5029875;28;20080;-58
2022/04/17 03:00:27;;;;;;;72.45;37.03;;;9.30;99.90;;;;;;5029082;28;20053;-59
2022/04/17 03:05:40;;;;;;;67.82;35.30;;;9.20;99.90;;;;;;5014803;28;20401;-59
2022/04/17 03:08:10;;;;;;;68.40;36.05;;;9.10;99.90;;;;;;5031021;28;20508;-58
2022/04/17 03:10:42;;;;;;;65.57;36.70;;;9.10;99.90;;;;;;5034047;28;20316;-59
2022/04/17 03:13:08;;;;;;;66.50;34.95;;;9.00;99.90;;;;;;5036818;28;20087;-58
2022/04/17 03:15:40;;;;;;;75.18;37.03;;;8.90;99.90;;;;;;5038010;28;20045;-58
2022/04/17 03:18:10;;;;;;;69.47;34.97;;;9.00;99.90;;;;;;5029939;28;20068;-58
2022/04/17 03:20:37;;;;;;;72.47;36.13;;;9.10;99.90;;;;;;5029271;28;20045;-59
2022/04/17 03:23:04;;;;;;;70.55;37.80;;;9.00;99.90;;;;;;5029126;28;20057;-57
2022/04/17 03:25:30;;;;;;;77.68;36.10;;;9.00;99.90;;;;;;5029392;28;20084;-57
2022/04/17 03:27:57;;;;;;;69.15;35.15;;;9.00;99.90;;;;;;5018136;28;20049;-59
2022/04/17 03:30:24;;;;;;;71.40;36.70;;;9.00;99.90;;;;;;5030879;28;20046;-57
2022/04/17 03:32:51;;;;;;;66.32;33.83;;;9.00;99.90;;;;;;5028964;28;20049;-59
2022/04/17 03:35:18;;;;;;;67.65;34.42;;;8.90;99.90;;;;;;5028982;28;20571;-57
2022/04/17 03:37:46;;;;;;;63.85;32.97;;;8.90;99.90;;;;;;5025844;28;20501;-58
2022/04/17 03:40:13;;;;;;;74.82;34.03;;;8.80;99.90;;;;;;5028684;28;20079;-58
2022/04/17 03:42:40;;;;;;;63.30;33.72;;;8.80;99.90;;;;;;5030389;28;20735;-58
2022/04/17 03:45:11;;;;;;;71.43;36.03;;;8.70;99.90;;;;;;5027573;28;20111;-57
2022/04/17 03:47:38;;;;;;;66.80;34.67;;;8.70;99.90;;;;;;5028002;28;20041;-58
2022/04/17 03:50:05;;;;;;;74.90;35.75;;;8.70;99.90;;;;;;5030728;28;20053;-58
2022/04/17 03:52:43;;;;;;;66.57;34.35;;;8.70;99.90;;;;;;5029806;28;20045;-58
2022/04/17 03:55:10;;;;;;;66.88;33.30;;;8.70;99.90;;;;;;5009929;28;20576;-56
2022/04/17 03:57:37;;;;;;;71.22;34.10;;;8.60;99.90;;;;;;5024428;28;20084;-59
2022/04/17 04:00:06;;;;;;;68.05;33.75;;;8.50;99.90;;;;;;5030767;28;20132;-58
2022/04/17 04:02:33;;;;;;;63.03;32.40;;;8.60;99.90;;;;;;5026865;28;20425;-58
2022/04/17 04:05:00;;;;;;;59.58;30.80;;;8.60;99.90;;;;;;5029937;28;20053;-59
2022/04/17 04:07:26;;;;;;;56.15;29.67;;;8.60;99.90;;;;;;5030594;28;20132;-59
2022/04/17 04:09:53;;;;;;;55.85;28.88;;;8.50;99.90;;;;;;5024411;28;20074;-59
2022/04/17 04:12:20;;;;;;;59.88;30.27;;;8.50;99.90;;;;;;5019094;28;20069;-59
2022/04/17 04:14:51;;;;;;;61.97;31.52;;;8.40;99.90;;;;;;5032418;28;20084;-58
2022/04/17 04:17:18;;;;;;;61.25;29.83;;;8.40;99.90;;;;;;5034214;28;20136;-59
2022/04/17 04:19:45;;;;;;;62.00;32.28;;;8.40;99.90;;;;;;5034346;28;20140;-58
2022/04/17 04:22:11;;;;;;;64.00;31.77;;;8.40;99.90;;;;;;5034284;28;20041;-59
2022/04/17 04:24:39;;;;;;;55.08;29.40;;;8.40;99.90;;;;;;5034567;28;20042;-59
2022/04/17 04:29:52;;;;;;;53.72;27.00;;;8.40;99.90;;;;;;5034079;28;20089;-58
2022/04/17 04:32:20;;;;;;;63.45;32.00;;;8.40;99.90;;;;;;5032863;28;20138;-57
2022/04/17 04:34:47;;;;;;;52.90;29.30;;;8.50;99.90;;;;;;5034069;28;20081;-57
2022/04/17 04:37:14;;;;;;;65.28;30.10;;;8.40;99.90;;;;;;5033969;28;20080;-58
2022/04/17 04:39:41;;;;;;;54.67;30.52;;;8.40;99.90;;;;;;5033461;28;20121;-59
2022/04/17 04:42:08;;;;;;;59.33;30.83;;;8.40;99.90;;;;;;5033901;28;20045;-59
2022/04/17 04:44:35;;;;;;;57.38;30.00;;;8.40;99.90;;;;;;5032283;28;20136;-59
2022/04/17 04:47:02;;;;;;;54.25;28.15;;;8.40;99.90;;;;;;5034102;28;20084;-59
2022/04/17 04:49:32;;;;;;;50.47;26.52;;;8.40;99.90;;;;;;5033601;28;20068;-58
2022/04/17 04:52:02;;;;;;;57.40;31.02;;;8.40;99.90;;;;;;5032930;28;20481;-58
2022/04/17 04:54:29;;;;;;;54.25;29.63;;;8.40;99.90;;;;;;5033476;28;20088;-59
2022/04/17 04:56:57;;;;;;;56.28;30.83;;;8.40;99.90;;;;;;5032253;28;20084;-58
2022/04/17 04:59:24;;;;;;;53.97;28.45;;;8.50;99.90;;;;;;5033770;28;20049;-58
2022/04/17 05:01:51;;;;;;;61.92;31.27;;;8.40;99.90;;;;;;5033879;28;20045;-59
2022/04/17 05:04:18;;;;;;;51.42;29.73;;;8.50;99.90;;;;;;5015742;28;20085;-59
2022/04/17 05:06:45;;;;;;;48.05;27.48;;;8.40;99.90;;;;;;5033610;28;20129;-59
2022/04/17 05:09:12;;;;;;;51.85;28.83;;;8.40;99.90;;;;;;5031760;28;20099;-58
2022/04/17 05:11:39;;;;;;;55.30;29.63;;;8.40;99.90;;;;;;5033051;28;20166;-58
2022/04/17 05:14:06;;;;;;;54.88;29.20;;;8.30;99.90;;;;;;5033380;28;20049;-58
2022/04/17 05:16:33;;;;;;;56.50;29.02;;;8.30;99.90;;;;;;5032128;28;20408;-58
2022/04/17 05:19:20;;;;;;;53.92;27.98;;;8.30;99.90;;;;;;5032209;28;20041;-58
2022/04/17 05:21:48;;;;;;;54.00;27.73;;;8.20;99.90;;;;;;5023447;28;20042;-59
2022/04/17 05:24:15;;;;;;;53.67;28.67;;;8.10;99.90;;;;;;5033336;28;20080;-59
2022/04/17 05:26:42;;;;;;;50.63;28.92;;;8.10;99.90;;;;;;5030734;28;20049;-55
2022/04/17 05:29:09;;;;;;;52.60;28.25;;;8.20;99.90;;;;;;5032809;28;20133;-58
2022/04/17 05:31:36;;;;;;;48.58;27.80;;;8.20;99.90;;;;;;5033129;28;20041;-59
2022/04/17 05:34:03;;;;;;;52.95;28.38;;;8.20;99.90;;;;;;5032923;28;20544;-56
2022/04/17 05:36:30;;;;;;;53.25;27.98;;;8.30;99.90;;;;;;5031136;28;20045;-55
2022/04/17 05:38:57;;;;;;;50.95;29.00;;;8.30;99.90;;;;;;5032273;28;20080;-57
2022/04/17 05:41:24;;;;;;;59.65;28.30;;;8.30;99.90;;;;;;5032435;28;20091;-58
2022/04/17 05:43:51;;;;;;;50.78;26.13;;;8.40;99.90;;;;;;5033040;28;20144;-57
2022/04/17 05:46:18;;;;;;;52.15;28.20;;;8.40;99.90;;;;;;5031392;28;20405;-57
2022/04/17 05:48:46;;;;;;;54.30;27.80;;;8.50;99.90;;;;;;5032747;28;20053;-58
2022/04/17 05:51:12;;;;;;;43.67;25.83;;;8.50;99.90;;;;;;5032405;28;20132;-55
2022/04/17 05:53:39;;;;;;;49.47;26.73;;;8.60;99.90;;;;;;5031752;28;20128;-57
2022/04/17 05:56:06;;;;;;;48.85;28.23;;;8.60;99.90;;;;;;5030922;28;20056;-58
2022/04/17 05:58:33;;;;;;;51.85;27.13;;;8.60;99.90;;;;;;5032597;28;20124;-56
2022/04/17 06:01:02;;;;;;;52.83;27.73;;;8.60;99.90;;;;;;5032217;28;20060;-58
2022/04/17 06:03:29;;;;;;;52.00;28.35;;;8.60;99.90;;;;;;5032458;28;20107;-58
2022/04/17 06:05:55;;;;;;;52.65;27.75;;;8.70;99.90;;;;;;5030808;28;20053;-57
2022/04/17 06:08:23;;;;;;;46.38;26.27;;;8.80;99.90;;;;;;5032301;28;20137;-57
2022/04/17 06:10:50;;;;;;;53.35;26.27;;;8.90;99.90;;;;;;5032517;28;20087;-58
2022/04/17 06:13:17;;;;;;;44.60;25.30;;;9.00;99.90;;;;;;5032346;28;20057;-57
2022/04/17 06:15:44;;;;;;;45.38;25.27;;;9.00;99.90;;;;;;5031947;28;20049;-57
2022/04/17 06:18:11;;;;;;;48.90;26.17;;;9.10;99.90;;;;;;5032324;28;20080;-59
2022/04/17 06:20:38;;;;;;;44.50;24.70;;;9.10;99.90;;;;;;5032273;28;20076;-59
2022/04/17 06:23:05;;;;;;;44.13;25.33;;;9.20;99.90;;;;;;5032403;28;20097;-57
2022/04/17 06:25:32;;;;;;;43.47;24.08;;;9.20;99.90;;;;;;5032120;28;20053;-56
2022/04/17 06:27:59;;;;;;;43.80;25.35;;;9.30;99.90;;;;;;5031485;28;20124;-59
2022/04/17 06:30:26;;;;;;;43.80;25.58;;;9.40;99.90;;;;;;5030884;28;20089;-58
2022/04/17 06:32:53;;;;;;;48.55;24.40;;;9.40;99.90;;;;;;5030289;28;20088;-55
2022/04/17 06:35:20;;;;;;;45.53;25.95;;;9.50;99.90;;;;;;5031958;28;20092;-56
2022/04/17 06:37:51;;;;;;;47.13;25.77;;;9.50;99.90;;;;;;5013545;28;20084;-58
2022/04/17 06:40:24;;;;;;;45.90;24.60;;;9.60;99.90;;;;;;5031489;28;20133;-58
2022/04/17 06:42:53;;;;;;;38.85;22.77;;;9.70;99.90;;;;;;5031285;28;20045;-58
2022/04/17 06:45:20;;;;;;;43.30;24.13;;;9.80;99.90;;;;;;5030104;28;20088;-58
2022/04/17 06:47:47;;;;;;;41.17;23.52;;;9.90;99.90;;;;;;5031552;28;20087;-59
2022/04/17 06:50:18;;;;;;;40.22;23.58;;;10.00;99.90;;;;;;5031419;28;20520;-56
2022/04/17 06:52:45;;;;;;;42.50;22.33;;;10.10;99.90;;;;;;5031322;28;20049;-57
2022/04/17 06:55:13;;;;;;;40.67;23.27;;;10.20;99.90;;;;;;5031740;28;20140;-57
2022/04/17 06:57:48;;;;;;;50.10;24.92;;;10.20;99.90;;;;;;5029646;28;20470;-57
2022/04/17 07:00:17;;;;;;;42.40;21.58;;;10.20;99.90;;;;;;5030290;28;20073;-57
2022/04/17 07:02:44;;;;;;;36.63;21.77;;;10.30;99.90;;;;;;5030180;28;20444;-59
2022/04/17 07:05:11;;;;;;;39.83;23.65;;;10.40;99.90;;;;;;5031349;28;20053;-58
2022/04/17 07:07:38;;;;;;;37.13;22.23;;;10.50;99.90;;;;;;5012944;28;20189;-57
2022/04/17 07:10:06;;;;;;;38.55;21.70;;;10.60;99.90;;;;;;5029709;28;20045;-58
2022/04/17 07:12:34;;;;;;;33.85;19.52;;;10.80;99.90;;;;;;5029150;28;20045;-56
2022/04/17 07:15:04;;;;;;;31.40;19.73;;;10.90;99.90;;;;;;5027999;28;20103;-57
2022/04/17 07:17:38;;;;;;;30.00;17.35;;;11.10;99.90;;;;;;5029951;28;20127;-58
2022/04/17 07:20:05;;;;;;;23.33;14.63;;;11.20;99.90;;;;;;5024235;28;20080;-58
2022/04/17 07:22:36;;;;;;;20.35;12.73;;;11.30;99.90;;;;;;5020344;28;20053;-57
2022/04/17 07:25:04;;;;;;;22.33;13.25;;;11.50;99.90;;;;;;5029892;28;20042;-59
2022/04/17 07:27:38;;;;;;;21.95;12.48;;;11.60;99.90;;;;;;5019256;28;20510;-59
2022/04/17 07:30:12;;;;;;;19.52;12.13;;;11.70;99.90;;;;;;5025220;28;20507;-59
2022/04/17 07:32:43;;;;;;;23.13;12.75;;;11.80;99.90;;;;;;5020306;28;20476;-58
2022/04/17 07:35:10;;;;;;;19.70;11.45;;;11.90;99.90;;;;;;5023004;28;20131;-57
2022/04/17 07:37:38;;;;;;;17.70;11.32;;;12.00;99.90;;;;;;5023603;28;20451;-58
2022/04/17 07:40:13;;;;;;;20.27;10.95;;;12.10;99.90;;;;;;5023693;28;20121;-58
2022/04/17 07:42:40;;;;;;;17.30;10.63;;;12.20;99.90;;;;;;5021293;28;20049;-59
2022/04/17 07:45:07;;;;;;;20.80;11.15;;;12.20;99.90;;;;;;5022742;28;20053;-59
2022/04/17 07:47:34;;;;;;;20.48;10.82;;;12.30;99.90;;;;;;5020845;28;20046;-58
2022/04/17 07:50:01;;;;;;;15.60;9.77;;;12.40;99.90;;;;;;5024456;28;20095;-59
2022/04/17 07:52:28;;;;;;;18.27;10.60;;;12.40;99.90;;;;;;5020857;28;20101;-59
2022/04/17 07:54:55;;;;;;;15.35;9.55;;;12.50;99.90;;;;;;5010710;28;20041;-59
2022/04/17 07:57:22;;;;;;;17.83;8.70;;;12.60;99.90;;;;;;5020292;28;20136;-60
2022/04/17 07:59:50;;;;;;;15.60;10.32;;;12.70;99.90;;;;;;5027857;28;20128;-59
2022/04/17 08:02:39;;;;;;;17.63;10.75;;;12.70;99.90;;;;;;5029181;28;20132;-59
2022/04/17 08:05:07;;;;;;;13.88;9.15;;;12.80;99.90;;;;;;5029702;28;20133;-57
2022/04/17 08:07:34;;;;;;;12.18;7.82;;;12.90;99.90;;;;;;5028066;28;20049;-57
2022/04/17 08:10:00;;;;;;;14.18;8.05;;;13.00;99.90;;;;;;4996423;28;20077;-57
2022/04/17 08:12:27;;;;;;;10.77;7.45;;;13.00;99.90;;;;;;5023675;28;20100;-57
2022/04/17 08:14:54;;;;;;;13.98;7.82;;;13.00;99.50;;;;;;5029940;28;20080;-58
2022/04/17 08:17:21;;;;;;;10.13;6.38;;;13.10;99.90;;;;;;5029206;28;20072;-58
2022/04/17 08:19:48;;;;;;;12.88;6.75;;;13.30;99.90;;;;;;5023807;28;20485;-58
2022/04/17 08:22:15;;;;;;;10.05;6.05;;;13.30;99.90;;;;;;5026112;28;20584;-59
2022/04/17 08:24:41;;;;;;;9.27;5.13;;;13.40;99.70;;;;;;5020817;28;20046;-57
2022/04/17 08:27:08;;;;;;;8.00;5.18;;;13.50;99.30;;;;;;5029941;28;20049;-59
2022/04/17 08:29:35;;;;;;;9.70;5.63;;;13.60;99.30;;;;;;5029506;28;20092;-59
2022/04/17 08:32:02;;;;;;;8.02;5.13;;;13.70;99.30;;;;;;5029032;28;20095;-59
2022/04/17 08:34:28;;;;;;;8.65;4.70;;;13.80;97.80;;;;;;5028528;28;20054;-58
2022/04/17 08:36:55;;;;;;;8.70;4.65;;;13.80;98.40;;;;;;5030156;28;20432;-59
2022/04/17 08:39:22;;;;;;;6.57;4.03;;;13.90;98.00;;;;;;5030749;28;20085;-59
2022/04/17 08:41:50;;;;;;;9.50;4.35;;;14.00;97.90;;;;;;5028016;28;20083;-59
2022/04/17 08:44:16;;;;;;;8.27;3.97;;;14.10;97.60;;;;;;5029723;28;20049;-59
2022/04/17 08:46:43;;;;;;;7.32;4.07;;;14.20;97.20;;;;;;5028466;28;20475;-59
2022/04/17 08:49:10;;;;;;;7.38;3.55;;;14.30;97.30;;;;;;5030542;28;20104;-58
2022/04/17 08:51:38;;;;;;;6.82;4.10;;;14.30;96.50;;;;;;5030457;28;20372;-57
2022/04/17 08:54:06;;;;;;;7.38;4.15;;;14.40;96.70;;;;;;5029343;28;20064;-57
2022/04/17 08:56:34;;;;;;;6.45;4.20;;;14.40;96.60;;;;;;5025833;28;20046;-59
2022/04/17 08:59:01;;;;;;;5.47;4.00;;;14.50;96.50;;;;;;5026649;28;20183;-61
2022/04/17 09:01:28;;;;;;;7.22;3.55;;;14.60;96.30;;;;;;5026251;28;20041;-59
2022/04/17 09:03:55;;;;;;;5.75;3.30;;;14.70;96.60;;;;;;5030152;28;20045;-58
2022/04/17 09:06:22;;;;;;;6.15;3.47;;;14.80;95.80;;;;;;5033974;28;20099;-58
2022/04/17 09:09:06;;;;;;;6.30;4.72;;;14.90;95.80;;;;;;5033004;28;20066;-60
2022/04/17 09:11:34;;;;;;;5.93;3.85;;;14.90;93.10;;;;;;5032032;28;20460;-59
2022/04/17 09:14:02;;;;;;;6.50;3.78;;;15.00;94.50;;;;;;5032587;28;20080;-58
2022/04/17 09:16:30;;;;;;;4.82;3.22;;;15.00;94.90;;;;;;5033672;28;20516;-58
2022/04/17 09:18:57;;;;;;;6.28;3.60;;;15.10;94.30;;;;;;5032701;28;20446;-59
2022/04/17 09:21:35;;;;;;;7.78;3.17;;;15.20;94.00;;;;;;5033536;28;20076;-58
2022/04/17 09:24:22;;;;;;;6.22;3.75;;;15.20;92.00;;;;;;5033657;28;20073;-59
2022/04/17 09:26:53;;;;;;;9.07;3.85;;;15.30;91.90;;;;;;5025901;28;20459;-57
2022/04/17 09:29:20;;;;;;;6.43;3.42;;;15.40;93.40;;;;;;5030195;28;20041;-59
2022/04/17 09:31:47;;;;;;;7.25;3.45;;;15.50;93.10;;;;;;5032479;28;20050;-60
2022/04/17 09:34:15;;;;;;;9.57;3.75;;;15.60;94.20;;;;;;5029633;28;20119;-59
2022/04/17 09:36:42;;;;;;;8.27;3.58;;;15.80;93.80;;;;;;5027571;28;20049;-59
2022/04/17 09:39:15;;;;;;;5.05;3.28;;;16.00;93.40;;;;;;5028609;28;20077;-58
2022/04/17 09:41:55;;;;;;;5.50;3.70;;;16.30;91.50;;;;;;5020063;28;20046;-59
2022/04/17 09:44:47;;;;;;;4.93;3.63;;;16.40;90.50;;;;;;5027017;28;20517;-60
2022/04/17 09:47:17;;;;;;;9.52;5.22;;;16.60;90.60;;;;;;5024551;28;20056;-60
2022/04/17 09:49:57;;;;;;;5.57;4.00;;;16.80;92.20;;;;;;5028788;28;20084;-58
2022/04/17 09:52:28;;;;;;;8.63;4.43;;;16.90;89.00;;;;;;5020945;28;20077;-59
2022/04/17 09:54:55;;;;;;;6.32;3.92;;;17.10;91.30;;;;;;5030387;28;20069;-58
2022/04/17 09:57:35;;;;;;;4.75;3.35;;;17.30;91.80;;;;;;5031613;28;20085;-58
2022/04/17 10:00:11;;;;;;;5.28;3.83;;;17.30;86.50;;;;;;5030040;28;20087;-59
2022/04/17 10:02:41;;;;;;;4.22;3.30;;;17.50;88.30;;;;;;5026638;28;20092;-59
2022/04/17 10:05:10;;;;;;;6.38;3.55;;;17.60;90.00;;;;;;5026516;28;20092;-59
2022/04/17 10:07:38;;;;;;;5.18;3.15;;;17.50;90.50;;;;;;5028920;28;20085;-59
2022/04/17 10:10:06;;;;;;;4.90;3.08;;;17.60;91.00;;;;;;5029791;28;20418;-59
2022/04/17 10:12:40;;;;;;;5.20;3.78;;;17.70;90.80;;;;;;5022095;28;20623;-59
2022/04/17 10:15:07;;;;;;;4.82;3.05;;;17.80;90.00;;;;;;5028975;28;20046;-58
2022/04/17 10:17:34;;;;;;;6.90;3.15;;;17.80;89.60;;;;;;5032345;28;20080;-57
2022/04/17 10:20:09;;;;;;;4.75;3.22;;;17.90;90.30;;;;;;5033667;28;20088;-59
2022/04/17 10:22:36;;;;;;;4.95;3.10;;;17.90;87.50;;;;;;5035049;28;20125;-58
2022/04/17 10:25:04;;;;;;;8.27;3.42;;;17.90;90.10;;;;;;5035224;28;20073;-59
2022/04/17 10:27:53;;;;;;;4.70;3.00;;;17.90;89.40;;;;;;5036070;28;20073;-59
2022/04/17 10:30:24;;;;;;;4.22;2.90;;;17.70;85.00;;;;;;5035178;28;20096;-59
2022/04/17 10:33:12;;;;;;;6.03;3.83;;;17.60;85.90;;;;;;5035844;28;20053;-60
2022/04/17 10:36:16;;;;;;;5.22;3.17;;;17.60;83.90;;;;;;5034415;28;20060;-60
2022/04/17 10:39:04;;;;;;;6.70;2.78;;;17.70;83.60;;;;;;5015872;28;20105;-60
2022/04/17 10:41:31;;;;;;;3.53;2.50;;;17.70;81.80;;;;;;5018045;28;20160;-58
2022/04/17 10:44:03;;;;;;;6.07;2.67;;;17.70;87.30;;;;;;5033094;28;20092;-59
2022/04/17 10:46:43;;;;;;;3.53;2.40;;;17.70;81.70;;;;;;5016804;28;20128;-60
2022/04/17 10:49:10;;;;;;;4.07;2.47;;;17.70;82.40;;;;;;5033214;28;20096;-58
2022/04/17 10:51:38;;;;;;;4.60;2.88;;;17.70;84.20;;;;;;5032771;28;20080;-58
2022/04/17 10:54:07;;;;;;;5.78;2.47;;;17.70;84.90;;;;;;5032648;28;20053;-59
2022/04/17 10:56:35;;;;;;;6.68;3.33;;;17.80;82.90;;;;;;5032654;28;20045;-58
2022/04/17 10:59:15;;;;;;;4.03;2.45;;;17.70;83.20;;;;;;5031346;28;20140;-59
2022/04/17 11:01:45;;;;;;;7.00;2.67;;;17.60;80.00;;;;;;5031325;28;20144;-59
2022/04/17 11:04:28;;;;;;;8.15;3.05;;;17.60;83.10;;;;;;5032955;28;20132;-59
2022/04/17 11:07:09;;;;;;;4.80;2.90;;;17.70;78.50;;;;;;5032200;28;20045;-61
2022/04/17 11:09:44;;;;;;;4.28;3.00;;;17.80;77.30;;;;;;5016167;28;20050;-59
2022/04/17 11:12:17;;;;;;;6.45;4.25;;;17.80;80.90;;;;;;5031821;28;20076;-59
2022/04/17 11:15:07;;;;;;;4.45;3.05;;;17.80;83.40;;;;;;5012145;28;20054;-60
2022/04/17 11:17:34;;;;;;;7.90;2.90;;;17.80;75.90;;;;;;5023412;28;20053;-60
2022/04/17 11:20:01;;;;;;;4.78;2.90;;;17.90;82.90;;;;;;5024597;28;20560;-59
2022/04/17 11:22:32;;;;;;;4.22;2.65;;;17.90;80.40;;;;;;5026121;28;20571;-59
2022/04/17 11:25:01;;;;;;;4.65;2.45;;;17.90;77.60;;;;;;5022621;28;20037;-59
2022/04/17 11:27:38;;;;;;;7.45;2.10;;;17.90;80.70;;;;;;5023553;28;20097;-59
2022/04/17 11:30:05;;;;;;;7.15;2.08;;;18.00;72.30;;;;;;5022620;28;20112;-60
2022/04/17 11:32:32;;;;;;;2.17;1.63;;;18.10;78.90;;;;;;5025666;28;20128;-59
2022/04/17 11:35:03;;;;;;;4.80;1.60;;;18.20;77.40;;;;;;5027868;28;20571;-60
2022/04/17 11:37:30;;;;;;;2.17;1.60;;;18.20;72.20;;;;;;5027335;28;20129;-59
2022/04/17 11:40:06;;;;;;;2.88;1.60;;;18.30;73.10;;;;;;5020106;28;20081;-59
2022/04/17 11:42:43;;;;;;;3.05;2.05;;;18.30;75.10;;;;;;5022013;28;20038;-59
2022/04/17 11:45:11;;;;;;;2.70;1.60;;;18.50;74.40;;;;;;5030883;28;20053;-61
2022/04/17 11:47:42;;;;;;;3.65;1.92;;;18.60;71.50;;;;;;5030353;28;20484;-60
2022/04/17 11:50:10;;;;;;;2.97;1.45;;;18.50;68.80;;;;;;5028188;28;20225;-60
2022/04/17 11:52:38;;;;;;;2.33;1.38;;;18.60;71.30;;;;;;5030796;28;20095;-59
2022/04/17 11:55:05;;;;;;;5.93;1.73;;;18.60;71.40;;;;;;5030068;28;20132;-57
2022/04/17 11:57:32;;;;;;;3.90;2.50;;;18.60;67.20;;;;;;5029070;28;20083;-59
2022/04/17 12:00:00;;;;;;;6.55;1.65;;;18.60;70.60;;;;;;5027458;28;20068;-58
2022/04/17 12:02:28;;;;;;;3.40;1.58;;;18.70;68.10;;;;;;5023216;28;20084;-60
2022/04/17 12:04:56;;;;;;;2.95;1.67;;;18.70;67.20;;;;;;5025095;28;20133;-59
2022/04/17 12:07:26;;;;;;;2.30;1.48;;;18.70;66.60;;;;;;5021773;28;20049;-59
2022/04/17 12:10:22;;;;;;;2.35;1.48;;;18.70;64.10;;;;;;5009620;28;20097;-58
2022/04/17 12:12:49;;;;;;;5.75;1.77;;;18.80;57.50;;;;;;5025761;28;20523;-59
2022/04/17 12:15:16;;;;;;;4.32;1.77;;;18.90;64.30;;;;;;5030015;28;20136;-59
2022/04/17 12:17:43;;;;;;;2.78;1.30;;;18.90;64.60;;;;;;5030433;28;20049;-58
2022/04/17 12:20:13;;;;;;;2.72;1.52;;;18.90;63.40;;;;;;5030571;28;20519;-59
2022/04/17 12:22:40;;;;;;;2.53;1.45;;;18.90;61.30;;;;;;5025358;28;20045;-58
2022/04/17 12:25:19;;;;;;;3.78;1.92;;;18.90;63.10;;;;;;5029255;28;20096;-58
2022/04/17 12:27:46;;;;;;;4.82;1.92;;;19.00;57.40;;;;;;5028369;28;20127;-58
2022/04/17 12:30:17;;;;;;;4.05;2.17;;;19.00;63.50;;;;;;5026315;28;20065;-59
2022/04/17 12:32:45;;;;;;;5.72;1.67;;;18.90;64.10;;;;;;5026309;28;20045;-58
2022/04/17 12:35:15;;;;;;;2.72;1.67;;;18.90;64.30;;;;;;5026767;28;20141;-59
2022/04/17 12:37:42;;;;;;;5.18;2.03;;;18.90;64.00;;;;;;5030997;28;20080;-59
2022/04/17 12:40:22;;;;;;;6.43;2.63;;;19.00;65.70;;;;;;5030456;28;20103;-58
2022/04/17 12:42:49;;;;;;;3.13;2.13;;;19.00;62.20;;;;;;5028130;28;20077;-59
2022/04/17 12:45:26;;;;;;;4.00;1.75;;;19.10;64.70;;;;;;5030633;28;20459;-57
2022/04/17 12:48:07;;;;;;;2.13;1.52;;;19.10;57.80;;;;;;5029739;28;20041;-59
2022/04/17 12:50:34;;;;;;;7.95;1.92;;;19.20;58.50;;;;;;5031809;28;20053;-59
2022/04/17 12:53:01;;;;;;;6.45;2.03;;;19.20;62.40;;;;;;5030692;28;20128;-59
2022/04/17 12:55:41;;;;;;;2.40;1.73;;;19.20;62.50;;;;;;5022765;28;20056;-61